Time;durP1;ratioP1;P1;durP2;ratioP2;P2;SDS_P1;SDS_P2;PMS_P1;PMS_P2;Temp;Humidity;BMP_temperature;BMP_pressure;BME280_temperature;BME280_humidity;BME280_pressure;Samples;Min_cycle;Max_cycle;Signal;HPM_P1;HPM_P2
2024/01/22 06:35:17;;;;;;;;;;;;;;;5.05;62.21;97948.88;4247944;27;10193;-62
2024/01/22 06:37:22;;;;;;;;;;;;;;;5.35;61.75;97940.19;4247494;27;5685;-63
2024/01/22 06:39:26;;;;;;;;;;;;;;;5.58;61.52;97939.97;4232713;27;6317;-62
2024/01/22 06:41:29;;;;;;;;;;;;;;;5.74;60.78;97942.91;4224500;28;5663;-62
2024/01/22 06:43:32;;;;;;;;;;;;;;;5.88;60.67;97937.25;4236585;27;5808;-62
2024/01/22 06:45:35;;;;;;;;;;;;;;;6.00;60.26;97941.47;4246375;27;5605;-63
2024/01/22 06:47:37;;;;;;;;;;;;;;;6.11;60.21;97945.75;4251920;27;5580;-62
2024/01/22 06:49:40;;;;;;;;;;;;;;;6.21;59.78;97943.97;4261347;27;5679;-63
2024/01/22 06:51:47;;;;;;;;;;;;;;;6.28;59.49;97941.63;4244555;27;5707;-63
2024/01/22 06:53:50;;;;;;;;;;;;;;;6.29;59.07;97941.47;4261493;27;5583;-62
2024/01/22 06:55:53;;;;;;;;;;;;;;;6.36;59.29;97945.22;4240395;27;5517;-61
2024/01/22 06:57:57;;;;;;;;;;;;;;;6.43;59.09;97946.31;4246743;27;5583;-61
2024/01/22 07:00:06;;;;;;;;;;;;;;;6.49;58.77;97946.75;4242538;27;5618;-62
2024/01/22 07:02:10;;;;;;;;;;;;;;;6.53;59.08;97948.94;4231724;28;5624;-61
2024/01/22 07:04:12;;;;;;;;;;;;;;;6.57;58.89;97945.09;4242516;27;5582;-61
2024/01/22 07:06:15;;;;;;;;;;;;;;;6.59;58.64;97947.56;4245730;27;5681;-62
2024/01/22 07:08:20;;;;;;;;;;;;;;;6.63;58.53;97952.38;4247959;27;5586;-61
2024/01/22 07:10:23;;;;;;;;;;;;;;;6.66;58.43;97938.13;4248084;27;6300;-61
2024/01/22 07:12:25;;;;;;;;;;;;;;;6.69;58.29;97940.50;4238061;27;5616;-62
2024/01/22 07:14:32;;;;;;;;;;;;;;;6.72;58.07;97945.47;4231189;28;5062;-62
2024/01/22 07:16:35;;;;;;;;;;;;;;;6.74;58.39;97951.41;4224345;27;7671;-63
2024/01/22 07:18:38;;;;;;;;;;;;;;;6.78;58.34;97958.03;4231155;28;5620;-63
2024/01/22 07:20:41;;;;;;;;;;;;;;;6.79;57.93;97959.69;4231245;28;5651;-62
2024/01/22 07:22:45;;;;;;;;;;;;;;;6.82;58.04;97958.59;4231065;28;6365;-63
2024/01/22 07:24:51;;;;;;;;;;;;;;;6.84;58.08;97975.06;4230734;28;5897;-62
2024/01/22 07:26:54;;;;;;;;;;;;;;;6.85;57.76;97961.75;4231040;28;6755;-63
2024/01/22 07:28:57;;;;;;;;;;;;;;;6.87;57.90;97961.63;4231066;28;7736;-63
2024/01/22 07:31:00;;;;;;;;;;;;;;;6.89;57.94;97959.69;4237906;27;5601;-61
2024/01/22 07:33:05;;;;;;;;;;;;;;;6.90;57.76;97951.66;4233294;27;5620;-61
2024/01/22 07:35:10;;;;;;;;;;;;;;;6.93;57.71;97951.38;4225799;28;5833;-62
2024/01/22 07:37:17;;;;;;;;;;;;;;;6.97;57.59;97947.50;4219714;28;6897;-62
2024/01/22 07:39:21;;;;;;;;;;;;;;;6.99;57.53;97952.59;4219820;28;5738;-62
2024/01/22 07:41:25;;;;;;;;;;;;;;;6.97;57.50;97958.00;4219559;28;5691;-62
2024/01/22 07:43:28;;;;;;;;;;;;;;;6.98;57.23;97954.41;4219694;28;5740;-62
2024/01/22 07:45:31;;;;;;;;;;;;;;;6.99;57.32;97956.06;4219502;28;5850;-61
2024/01/22 07:47:35;;;;;;;;;;;;;;;7.02;57.16;97957.56;4226101;27;5853;-61
2024/01/22 07:49:39;;;;;;;;;;;;;;;7.04;57.40;97960.06;4219578;28;5621;-62
2024/01/22 07:51:42;;;;;;;;;;;;;;;7.06;57.19;97952.88;4219703;28;5692;-62
2024/01/22 07:53:45;;;;;;;;;;;;;;;7.06;57.24;97966.84;4219428;28;5737;-62
2024/01/22 07:55:48;;;;;;;;;;;;;;;7.06;57.04;97973.91;4219276;28;5621;-62
2024/01/22 07:57:52;;;;;;;;;;;;;;;7.07;57.09;97983.44;4219427;28;5604;-62
2024/01/22 07:59:55;;;;;;;;;;;;;;;7.10;56.69;97978.72;4219507;28;5621;-62
2024/01/22 08:01:58;;;;;;;;;;;;;;;7.14;56.87;97968.78;4219411;27;5609;-62
2024/01/22 08:04:03;;;;;;;;;;;;;;;7.17;56.53;97969.31;4234334;28;5714;-62
2024/01/22 08:06:06;;;;;;;;;;;;;;;7.17;56.46;97979.81;4236347;28;5693;-62
2024/01/22 08:08:10;;;;;;;;;;;;;;;7.20;56.62;97992.69;4236257;28;5610;-62
2024/01/22 08:10:13;;;;;;;;;;;;;;;7.22;56.52;97992.53;4219124;28;5790;-62
2024/01/22 08:12:16;;;;;;;;;;;;;;;7.25;56.53;97981.75;4219136;28;5620;-62
2024/01/22 08:14:22;;;;;;;;;;;;;;;7.28;56.24;97981.47;4219438;28;5616;-62
2024/01/22 08:16:25;;;;;;;;;;;;;;;7.30;56.23;97976.88;4218728;27;5789;-62
2024/01/22 08:18:28;;;;;;;;;;;;;;;7.32;55.88;97980.19;4221203;28;5727;-61
2024/01/22 08:20:32;;;;;;;;;;;;;;;7.34;55.97;97967.72;4236111;28;5605;-65
2024/01/22 08:22:38;;;;;;;;;;;;;;;7.38;55.89;97970.91;4236191;28;5598;-63
2024/01/22 08:24:41;;;;;;;;;;;;;;;7.41;55.79;97970.63;4235485;28;5697;-63
2024/01/22 08:26:44;;;;;;;;;;;;;;;7.43;55.60;97953.69;4235927;28;5646;-65
2024/01/22 08:28:47;;;;;;;;;;;;;;;7.46;55.69;97958.66;4235871;28;5618;-62
2024/01/22 08:30:54;;;;;;;;;;;;;;;7.50;55.54;97946.91;4235869;28;5741;-62
2024/01/22 08:32:58;;;;;;;;;;;;;;;7.52;55.06;97941.47;4229656;27;5684;-62
2024/01/22 08:35:03;;;;;;;;;;;;;;;7.54;55.05;97956.16;4207270;28;5637;-62
2024/01/22 08:37:07;;;;;;;;;;;;;;;7.55;55.45;97951.72;4235796;28;5617;-62
2024/01/22 08:39:11;;;;;;;;;;;;;;;7.56;55.47;97961.25;4235816;28;6291;-62
2024/01/22 08:41:15;;;;;;;;;;;;;;;7.57;55.11;97961.09;4235391;28;5692;-62
2024/01/22 08:43:18;;;;;;;;;;;;;;;7.58;55.31;97968.03;4235777;28;5733;-62
2024/01/22 08:45:23;;;;;;;;;;;;;;;7.59;55.04;97963.63;4235566;28;5602;-62
2024/01/22 08:47:28;;;;;;;;;;;;;;;7.61;54.91;97968.72;4234655;28;5617;-62
2024/01/22 08:49:31;;;;;;;;;;;;;;;7.62;55.06;97965.94;4222256;27;5628;-62
2024/01/22 08:51:37;;;;;;;;;;;;;;;7.65;54.83;97967.47;4218572;28;5608;-62
2024/01/22 08:53:39;;;;;;;;;;;;;;;7.69;54.91;97953.03;4218605;28;5625;-62
2024/01/22 08:55:43;;;;;;;;;;;;;;;7.71;54.75;97951.91;4218361;28;5609;-62
2024/01/22 08:57:47;;;;;;;;;;;;;;;7.73;54.80;97939.44;4218498;28;5628;-62
2024/01/22 08:59:50;;;;;;;;;;;;;;;7.75;54.40;97934.84;4218352;28;5601;-62
2024/01/22 09:01:53;;;;;;;;;;;;;;;7.80;54.16;97939.66;4218562;28;5181;-62
2024/01/22 09:03:57;;;;;;;;;;;;;;;7.81;54.30;97920.25;4218110;27;5613;-61
2024/01/22 09:06:01;;;;;;;;;;;;;;;7.84;53.83;97909.44;4217963;28;5601;-62
2024/01/22 09:08:04;;;;;;;;;;;;;;;7.85;53.90;97908.47;4233712;28;5629;-63
2024/01/22 09:10:08;;;;;;;;;;;;;;;7.87;53.97;97915.22;4235017;28;5602;-62
2024/01/22 09:12:11;;;;;;;;;;;;;;;7.89;53.90;97902.75;4218531;28;5173;-62
2024/01/22 09:14:16;;;;;;;;;;;;;;;7.94;53.95;97897.03;4218311;28;5682;-62
2024/01/22 09:16:21;;;;;;;;;;;;;;;7.96;53.40;97889.81;4218188;28;5699;-62
2024/01/22 09:18:23;;;;;;;;;;;;;;;7.94;53.16;97883.88;4218077;27;5716;-62
2024/01/22 09:20:30;;;;;;;;;;;;;;;7.94;53.50;97888.31;4228200;28;5589;-62
2024/01/22 09:22:33;;;;;;;;;;;;;;;7.93;53.27;97887.50;4234774;28;6374;-62
2024/01/22 09:24:36;;;;;;;;;;;;;;;7.94;53.34;97894.41;4234460;28;5609;-62
2024/01/22 09:26:39;;;;;;;;;;;;;;;7.95;53.29;97906.59;4216838;28;5809;-62
2024/01/22 09:28:42;;;;;;;;;;;;;;;7.96;53.11;97907.44;4234770;28;6481;-62
2024/01/22 09:30:45;;;;;;;;;;;;;;;7.96;52.95;97910.06;4234818;28;5904;-62
2024/01/22 09:32:50;;;;;;;;;;;;;;;7.99;53.08;97893.94;4234833;28;5614;-62
2024/01/22 09:34:54;;;;;;;;;;;;;;;8.00;52.83;97893.78;4224303;27;5629;-62
2024/01/22 09:36:58;;;;;;;;;;;;;;;8.00;52.81;97891.16;4199828;28;5635;-63
2024/01/22 09:39:01;;;;;;;;;;;;;;;8.00;52.64;97888.53;4224451;28;5602;-63
2024/01/22 09:41:05;;;;;;;;;;;;;;;8.01;52.54;97894.63;4234673;28;5681;-63
2024/01/22 09:43:09;;;;;;;;;;;;;;;8.03;52.61;97882.13;4234693;28;5689;-63
2024/01/22 09:45:13;;;;;;;;;;;;;;;8.04;52.73;97889.91;4234582;28;5622;-63
2024/01/22 09:47:17;;;;;;;;;;;;;;;8.08;52.57;97885.16;4234888;28;5747;-63
2024/01/22 09:49:20;;;;;;;;;;;;;;;8.10;52.36;97878.75;4234723;28;5642;-63
2024/01/22 09:51:24;;;;;;;;;;;;;;;8.12;52.50;97874.16;4227990;27;5617;-62
2024/01/22 09:53:28;;;;;;;;;;;;;;;8.15;52.28;97865.13;4217670;28;6309;-62
2024/01/22 09:55:32;;;;;;;;;;;;;;;8.18;51.94;97846.41;4217509;28;5620;-63
2024/01/22 09:57:39;;;;;;;;;;;;;;;8.22;51.69;97844.28;4217455;28;5751;-62
2024/01/22 09:59:44;;;;;;;;;;;;;;;8.21;51.71;97843.44;4217598;28;5701;-62
2024/01/22 10:01:48;;;;;;;;;;;;;;;8.23;51.98;97840.66;4217578;28;5760;-62
2024/01/22 10:03:52;;;;;;;;;;;;;;;8.23;52.04;97840.66;4217441;28;5740;-62
2024/01/22 10:05:55;;;;;;;;;;;;;;;8.23;52.27;97830.94;4217333;28;6313;-62
2024/01/22 10:07:59;;;;;;;;;;;;;;;8.24;52.37;97805.44;4217308;27;5872;-61
2024/01/22 10:10:03;;;;;;;;;;;;;;;8.24;52.36;97795.72;4217267;28;5695;-62
2024/01/22 10:12:07;;;;;;;;;;;;;;;8.22;52.45;97800.31;4233412;28;6298;-62
2024/01/22 10:14:11;;;;;;;;;;;;;;;8.24;52.30;97813.34;4234286;28;5598;-61
2024/01/22 10:16:14;;;;;;;;;;;;;;;8.24;52.19;97802.78;4233997;28;5702;-62
2024/01/22 10:18:21;;;;;;;;;;;;;;;8.24;52.35;97800.16;4217371;27;5725;-61
2024/01/22 10:20:23;;;;;;;;;;;;;;;8.24;52.24;97805.44;4217334;28;5621;-61
2024/01/22 10:22:28;;;;;;;;;;;;;;;8.23;52.33;97796.69;4217287;28;5696;-61
2024/01/22 10:24:32;;;;;;;;;;;;;;;8.26;51.80;97798.19;4228168;28;5626;-61
2024/01/22 10:26:38;;;;;;;;;;;;;;;8.28;51.51;97789.19;4234148;28;5614;-62
2024/01/22 10:28:42;;;;;;;;;;;;;;;8.28;51.96;97786.53;4233278;28;6302;-61
2024/01/22 10:30:45;;;;;;;;;;;;;;;8.29;49.66;97776.84;4234104;28;5839;-61
2024/01/22 10:32:48;;;;;;;;;;;;;;;8.29;50.43;97761.03;4234266;28;5613;-62
2024/01/22 10:34:53;;;;;;;;;;;;;;;8.30;50.93;97762.69;4222611;27;5636;-62
2024/01/22 10:37:06;;;;;;;;;;;;;;;8.30;51.15;97762.69;4217309;28;5609;-62
2024/01/22 10:39:09;;;;;;;;;;;;;;;8.35;51.21;97769.16;4217292;28;6182;-62
2024/01/22 10:41:19;;;;;;;;;;;;;;;8.36;50.96;97762.91;4217145;28;5613;-62
2024/01/22 10:43:28;;;;;;;;;;;;;;;8.38;51.12;97760.09;4226693;28;5594;-62
2024/01/22 10:45:32;;;;;;;;;;;;;;;8.37;51.12;97753.19;4234012;28;5640;-62
2024/01/22 10:47:36;;;;;;;;;;;;;;;8.37;50.99;97746.09;4234000;28;5602;-62
2024/01/22 10:49:40;;;;;;;;;;;;;;;8.39;51.12;97735.44;4234079;28;5620;-62
2024/01/22 10:51:45;;;;;;;;;;;;;;;8.41;51.07;97734.28;4216913;27;5822;-64
2024/01/22 10:53:49;;;;;;;;;;;;;;;8.41;50.79;97730.84;4216983;28;5728;-62
2024/01/22 10:56:00;;;;;;;;;;;;;;;8.40;50.95;97730.00;4216794;28;5624;-62
2024/01/22 10:58:09;;;;;;;;;;;;;;;8.45;50.50;97734.78;4217217;28;5708;-61
2024/01/22 11:00:15;;;;;;;;;;;;;;;8.51;50.00;97742.09;4219863;27;5593;-62
2024/01/22 11:02:23;;;;;;;;;;;;;;;8.54;50.09;97731.22;4217136;28;5617;-62
2024/01/22 11:04:33;;;;;;;;;;;;;;;8.60;50.04;97716.56;4217194;28;5605;-62
2024/01/22 11:06:40;;;;;;;;;;;;;;;8.63;49.90;97711.84;4217064;28;5710;-62
2024/01/22 11:08:47;;;;;;;;;;;;;;;8.66;50.18;97718.59;4217082;28;5612;-62
2024/01/22 11:10:52;;;;;;;;;;;;;;;8.68;50.40;97720.06;4218459;28;5609;-62
2024/01/22 11:12:57;;;;;;;;;;;;;;;8.68;50.32;97714.81;4220306;28;5629;-62
2024/01/22 11:15:01;;;;;;;;;;;;;;;8.69;50.06;97705.91;4226711;28;5602;-63
2024/01/22 11:17:08;;;;;;;;;;;;;;;8.68;49.99;97693.72;4235855;27;5590;-62
2024/01/22 11:19:22;;;;;;;;;;;;;;;8.68;50.12;97693.72;4236698;27;5582;-62
2024/01/22 11:21:33;;;;;;;;;;;;;;;8.71;49.89;97693.38;4220204;28;5628;-62
2024/01/22 11:23:36;;;;;;;;;;;;;;;8.73;50.12;97694.06;4220057;28;5644;-63
2024/01/22 11:25:39;;;;;;;;;;;;;;;8.75;49.80;97680.72;4219708;28;5617;-63
2024/01/22 11:27:44;;;;;;;;;;;;;;;8.74;50.06;97672.00;4219965;28;5727;-63
2024/01/22 11:29:47;;;;;;;;;;;;;;;8.73;49.80;97664.25;4220047;28;5613;-62
2024/01/22 11:31:50;;;;;;;;;;;;;;;8.75;50.13;97660.47;4233620;28;5614;-62
2024/01/22 11:33:55;;;;;;;;;;;;;;;8.75;49.85;97662.28;4236467;28;5733;-62
2024/01/22 11:36:02;;;;;;;;;;;;;;;8.75;49.90;97671.00;4229613;27;5731;-62
2024/01/22 11:38:11;;;;;;;;;;;;;;;8.79;49.73;97662.78;4219905;28;5645;-62
2024/01/22 11:40:16;;;;;;;;;;;;;;;8.80;49.69;97664.41;4219583;28;5703;-62
2024/01/22 11:42:30;;;;;;;;;;;;;;;8.80;49.68;97667.06;4219955;28;6147;-62
2024/01/22 11:44:40;;;;;;;;;;;;;;;8.78;49.79;97656.69;4231042;28;5611;-62
2024/01/22 11:46:44;;;;;;;;;;;;;;;8.78;49.90;97647.94;4232264;28;5790;-62
2024/01/22 11:48:48;;;;;;;;;;;;;;;8.80;49.82;97638.06;4219633;28;5819;-62
2024/01/22 11:51:01;;;;;;;;;;;;;;;8.83;49.44;97640.38;4219576;28;5617;-62
2024/01/22 11:53:06;;;;;;;;;;;;;;;8.87;49.64;97632.00;4219381;28;5735;-62
2024/01/22 11:55:09;;;;;;;;;;;;;;;8.89;49.44;97616.81;4218919;27;5798;-62
2024/01/22 11:57:14;;;;;;;;;;;;;;;8.92;49.64;97615.66;4219614;28;5621;-62
2024/01/22 11:59:18;;;;;;;;;;;;;;;8.92;49.31;97603.31;4219628;28;5718;-63
2024/01/22 12:01:20;;;;;;;;;;;;;;;8.94;49.12;97611.88;4219644;28;5613;-63
2024/01/22 12:03:25;;;;;;;;;;;;;;;8.97;49.39;97600.19;4219343;28;5715;-63
2024/01/22 12:05:28;;;;;;;;;;;;;;;8.97;49.32;97605.47;4219394;28;5774;-62
2024/01/22 12:07:34;;;;;;;;;;;;;;;8.98;49.28;97601.84;4219283;28;5597;-61
2024/01/22 12:09:38;;;;;;;;;;;;;;;8.97;49.13;97594.94;4219430;28;5499;-62
2024/01/22 12:11:51;;;;;;;;;;;;;;;8.99;49.08;97606.13;4243928;27;8420;-62
2024/01/22 12:13:54;;;;;;;;;;;;;;;8.97;49.39;97600.19;4219258;28;5750;-63
2024/01/22 12:16:01;;;;;;;;;;;;;;;8.97;49.09;97592.28;4219428;28;5627;-62
2024/01/22 12:18:04;;;;;;;;;;;;;;;8.97;49.17;97587.00;4219061;28;5833;-62
2024/01/22 12:20:09;;;;;;;;;;;;;;;8.97;49.22;97579.09;4235343;28;5609;-61
2024/01/22 12:22:14;;;;;;;;;;;;;;;8.97;49.24;97590.47;4236829;27;5704;-62
2024/01/22 12:24:19;;;;;;;;;;;;;;;8.96;49.20;97595.91;4235780;28;5603;-61
2024/01/22 12:26:24;;;;;;;;;;;;;;;8.98;49.05;97607.94;4235681;28;5693;-62
2024/01/22 12:28:27;;;;;;;;;;;;;;;8.98;49.24;97613.22;4235954;28;5602;-65
2024/01/22 12:30:31;;;;;;;;;;;;;;;8.97;49.04;97624.75;4235736;28;5598;-65
2024/01/22 12:32:36;;;;;;;;;;;;;;;8.96;49.30;97617.00;4235791;28;5605;-62
2024/01/22 12:34:39;;;;;;;;;;;;;;;8.95;49.22;97612.72;4235613;28;5618;-62
2024/01/22 12:36:42;;;;;;;;;;;;;;;8.95;49.15;97618.00;4231343;27;6222;-62
2024/01/22 12:38:50;;;;;;;;;;;;;;;8.94;49.02;97616.31;4218573;28;7667;-62
2024/01/22 12:41:08;;;;;;;;;;;;;;;8.94;48.99;97618.97;4224080;28;6439;-63
2024/01/22 12:43:11;;;;;;;;;;;;;;;8.93;49.26;97609.41;4231800;28;5609;-62
2024/01/22 12:45:16;;;;;;;;;;;;;;;8.94;49.43;97603.13;4234731;28;5591;-62
2024/01/22 12:47:18;;;;;;;;;;;;;;;8.95;49.32;97595.09;4235187;28;5657;-61
2024/01/22 12:49:22;;;;;;;;;;;;;;;8.99;49.72;97588.50;4235665;28;5603;-62
2024/01/22 12:51:26;;;;;;;;;;;;;;;9.03;49.62;97594.25;4229755;28;5670;-62
2024/01/22 12:53:33;;;;;;;;;;;;;;;9.04;49.67;97595.91;4220690;27;6307;-62
2024/01/22 12:55:36;;;;;;;;;;;;;;;9.05;49.74;97608.09;4226667;28;5677;-62
2024/01/22 12:57:42;;;;;;;;;;;;;;;9.04;49.95;97593.25;4220092;28;5830;-62
2024/01/22 12:59:47;;;;;;;;;;;;;;;9.04;50.40;97578.25;4218236;28;5616;-62
2024/01/22 13:01:50;;;;;;;;;;;;;;;9.05;50.20;97582.53;4235154;28;5611;-61
2024/01/22 13:03:56;;;;;;;;;;;;;;;9.04;50.39;97572.97;4235058;28;5602;-61
2024/01/22 13:06:00;;;;;;;;;;;;;;;9.06;50.57;97546.47;4234218;28;5669;-62
2024/01/22 13:08:04;;;;;;;;;;;;;;;9.05;50.47;97552.72;4219365;27;6047;-61
2024/01/22 13:10:08;;;;;;;;;;;;;;;9.07;50.75;97557.84;4219693;28;5707;-61
2024/01/22 13:12:10;;;;;;;;;;;;;;;9.07;51.02;97556.03;4217794;28;5767;-61
2024/01/22 13:14:14;;;;;;;;;;;;;;;9.09;51.22;97567.22;4218775;28;5609;-63
2024/01/22 13:16:18;;;;;;;;;;;;;;;9.09;51.03;97569.88;4217696;28;5719;-63
2024/01/22 13:18:22;;;;;;;;;;;;;;;9.09;51.35;97561.13;4232230;28;5087;-63
2024/01/22 13:20:26;;;;;;;;;;;;;;;9.09;51.55;97563.78;4220435;28;5921;-62
2024/01/22 13:22:30;;;;;;;;;;;;;;;9.09;51.73;97585.69;4221602;27;5733;-62
2024/01/22 13:24:33;;;;;;;;;;;;;;;9.08;51.89;97586.69;4224383;27;5793;-62
2024/01/22 13:26:37;;;;;;;;;;;;;;;9.09;52.08;97595.44;4227662;28;5664;-62
2024/01/22 13:28:40;;;;;;;;;;;;;;;9.10;52.41;97591.78;4228999;28;5605;-62
2024/01/22 13:30:45;;;;;;;;;;;;;;;9.08;52.67;97604.34;4220894;27;5831;-62
2024/01/22 13:32:47;;;;;;;;;;;;;;;9.08;52.97;97615.69;4217168;28;5617;-62
2024/01/22 13:34:50;;;;;;;;;;;;;;;9.09;52.93;97609.44;4228378;27;6303;-62
2024/01/22 13:36:54;;;;;;;;;;;;;;;9.09;53.51;97612.06;4220599;28;5767;-62
2024/01/22 13:38:57;;;;;;;;;;;;;;;9.14;54.84;97598.38;4222630;27;5865;-62
2024/01/22 13:41:01;;;;;;;;;;;;;;;9.18;54.51;97595.28;4230200;28;5815;-62
2024/01/22 13:43:04;;;;;;;;;;;;;;;9.20;55.17;97601.19;4219171;28;5733;-63
2024/01/22 13:45:08;;;;;;;;;;;;;;;9.20;55.32;97601.19;4231405;28;5594;-63
2024/01/22 13:47:13;;;;;;;;;;;;;;;9.21;55.25;97587.03;4232721;28;5606;-63
2024/01/22 13:49:29;;;;;;;;;;;;;;;9.23;55.80;97603.50;4217918;28;5625;-63
2024/01/22 13:51:34;;;;;;;;;;;;;;;9.23;55.64;97600.88;4219066;27;5724;-61
2024/01/22 13:53:37;;;;;;;;;;;;;;;9.22;55.83;97615.03;4230195;28;5582;-62
2024/01/22 13:55:40;;;;;;;;;;;;;;;9.22;56.34;97620.31;4227597;28;5650;-62
2024/01/22 13:57:43;;;;;;;;;;;;;;;9.19;56.63;97623.31;4232962;27;5590;-62
2024/01/22 13:59:45;;;;;;;;;;;;;;;9.19;56.52;97611.91;4223432;27;5632;-62
2024/01/22 14:01:50;;;;;;;;;;;;;;;9.19;57.02;97610.09;4218776;27;5605;-63
2024/01/22 14:03:54;;;;;;;;;;;;;;;9.19;57.38;97602.19;4232519;27;5757;-62
2024/01/22 14:05:58;;;;;;;;;;;;;;;9.19;57.51;97589.00;4240350;27;5567;-63
2024/01/22 14:08:03;;;;;;;;;;;;;;;9.20;58.05;97585.38;4237782;27;5661;-62
2024/01/22 14:10:07;;;;;;;;;;;;;;;9.22;59.50;97570.19;4241241;27;5808;-63
2024/01/22 14:12:10;;;;;;;;;;;;;;;9.22;58.97;97567.56;4242866;27;5708;-63
2024/01/22 14:14:13;;;;;;;;;;;;;;;9.20;58.57;97577.47;4229201;27;5697;-62
2024/01/22 14:16:25;;;;;;;;;;;;;;;9.21;59.25;97573.81;4225058;28;5606;-61
2024/01/22 14:18:28;;;;;;;;;;;;;;;9.22;59.06;97579.94;4226460;28;5629;-62
2024/01/22 14:20:33;;;;;;;;;;;;;;;9.21;59.15;97584.38;4228694;27;5590;-62
2024/01/22 14:22:36;;;;;;;;;;;;;;;9.21;59.27;97580.91;4224098;27;5684;-62
2024/01/22 14:24:39;;;;;;;;;;;;;;;9.20;59.51;97566.09;4228372;27;5592;-62
2024/01/22 14:26:46;;;;;;;;;;;;;;;9.18;59.61;97563.63;4220203;27;5609;-62
2024/01/22 14:28:49;;;;;;;;;;;;;;;9.16;59.71;97552.38;4220212;27;5686;-62
2024/01/22 14:30:52;;;;;;;;;;;;;;;9.15;60.32;97558.66;4217129;28;5730;-63
2024/01/22 14:32:54;;;;;;;;;;;;;;;9.16;60.42;97565.56;4216970;28;5617;-63
2024/01/22 14:35:00;;;;;;;;;;;;;;;9.17;60.36;97555.84;4220815;28;6318;-62
2024/01/22 14:37:05;;;;;;;;;;;;;;;9.17;60.23;97546.09;4228555;28;5613;-62
2024/01/22 14:39:10;;;;;;;;;;;;;;;9.18;61.25;97539.88;4217275;28;5605;-62
2024/01/22 14:41:14;;;;;;;;;;;;;;;9.18;60.76;97549.59;4220674;27;5625;-62
2024/01/22 14:43:18;;;;;;;;;;;;;;;9.16;61.02;97549.75;4219482;27;5612;-62
2024/01/22 14:45:21;;;;;;;;;;;;;;;9.14;61.12;97559.63;4217873;28;5636;-63
2024/01/22 14:47:24;;;;;;;;;;;;;;;9.13;61.33;97576.47;4250103;27;5591;-62
2024/01/22 14:49:28;;;;;;;;;;;;;;;9.12;61.22;97584.53;4239881;27;5684;-63
2024/01/22 14:51:31;;;;;;;;;;;;;;;9.12;61.78;97590.63;4228020;28;5529;-63
2024/01/22 14:53:36;;;;;;;;;;;;;;;9.12;61.54;97595.09;4220448;28;5525;-63
2024/01/22 14:55:39;;;;;;;;;;;;;;;9.13;61.94;97592.28;4230429;28;5720;-63
2024/01/22 14:57:42;;;;;;;;;;;;;;;9.12;61.63;97601.19;4226735;27;5100;-62
2024/01/22 14:59:45;;;;;;;;;;;;;;;9.13;61.63;97612.56;4220296;28;5688;-62
2024/01/22 15:01:49;;;;;;;;;;;;;;;9.12;61.92;97619.66;4220555;28;5629;-61
2024/01/22 15:03:53;;;;;;;;;;;;;;;9.13;62.63;97597.56;4233612;28;5697;-62
2024/01/22 15:05:56;;;;;;;;;;;;;;;9.14;62.72;97577.28;4230865;28;5689;-61
2024/01/22 15:07:59;;;;;;;;;;;;;;;9.16;63.06;97575.28;4220268;28;5521;-62
2024/01/22 15:10:07;;;;;;;;;;;;;;;9.13;62.86;97587.00;4231281;28;5755;-62
2024/01/22 15:12:11;;;;;;;;;;;;;;;9.14;62.75;97601.03;4235791;28;5838;-62
2024/01/22 15:14:15;;;;;;;;;;;;;;;9.14;63.08;97586.00;4228723;27;5790;-62
2024/01/22 15:16:18;;;;;;;;;;;;;;;9.15;62.93;97573.66;4220164;28;5808;-62
2024/01/22 15:18:22;;;;;;;;;;;;;;;9.15;63.10;97553.38;4228526;28;5610;-62
2024/01/22 15:20:25;;;;;;;;;;;;;;;9.17;63.13;97540.00;4236815;28;5696;-62
2024/01/22 15:22:28;;;;;;;;;;;;;;;9.18;63.24;97547.78;4236723;28;5685;-62
2024/01/22 15:24:31;;;;;;;;;;;;;;;9.16;63.26;97555.00;4231994;27;5620;-62
2024/01/22 15:26:36;;;;;;;;;;;;;;;9.19;63.38;97580.25;4223529;28;5605;-62
2024/01/22 15:28:42;;;;;;;;;;;;;;;9.18;63.77;97595.28;4236919;28;6264;-62
2024/01/22 15:30:45;;;;;;;;;;;;;;;9.20;64.00;97601.19;4232009;28;5806;-62
2024/01/22 15:32:48;;;;;;;;;;;;;;;9.21;64.32;97605.47;4226624;28;5709;-62
2024/01/22 15:34:51;;;;;;;;;;;;;;;9.21;64.23;97610.75;4223175;28;5609;-62
2024/01/22 15:36:54;;;;;;;;;;;;;;;9.22;64.22;97607.13;4219692;28;5625;-62
2024/01/22 15:39:00;;;;;;;;;;;;;;;9.23;64.20;97605.31;4233465;28;5730;-62
2024/01/22 15:41:05;;;;;;;;;;;;;;;9.22;64.33;97606.31;4236427;28;5606;-62
2024/01/22 15:43:10;;;;;;;;;;;;;;;9.25;64.89;97612.06;4219568;27;5612;-62
2024/01/22 15:45:13;;;;;;;;;;;;;;;9.24;64.83;97605.16;4219663;28;5800;-62
2024/01/22 15:47:17;;;;;;;;;;;;;;;9.22;65.52;97615.03;4228545;28;6303;-63
2024/01/22 15:49:21;;;;;;;;;;;;;;;9.21;65.70;97626.59;4236393;28;5757;-62
2024/01/22 15:51:24;;;;;;;;;;;;;;;9.19;65.64;97628.56;4227912;28;5614;-62
2024/01/22 15:53:27;;;;;;;;;;;;;;;9.19;65.15;97638.31;4236263;28;5614;-61
2024/01/22 15:55:30;;;;;;;;;;;;;;;9.18;65.70;97632.22;4227811;28;5606;-62
2024/01/22 15:57:33;;;;;;;;;;;;;;;9.19;65.73;97649.69;4227375;28;5807;-62
2024/01/22 15:59:37;;;;;;;;;;;;;;;9.20;65.82;97653.13;4219681;27;5798;-63
2024/01/22 16:01:41;;;;;;;;;;;;;;;9.21;65.86;97655.63;4220940;27;6219;-63
2024/01/22 16:03:44;;;;;;;;;;;;;;;9.21;65.92;97663.53;4228336;28;5673;-61
2024/01/22 16:05:47;;;;;;;;;;;;;;;9.22;65.77;97653.81;4227173;28;5789;-62
2024/01/22 16:07:49;;;;;;;;;;;;;;;9.24;66.08;97651.81;4233696;27;5871;-62
2024/01/22 16:09:52;;;;;;;;;;;;;;;9.23;65.81;97656.28;4231686;28;5829;-63
2024/01/22 16:11:55;;;;;;;;;;;;;;;9.22;66.18;97649.34;4220497;28;5804;-62
2024/01/22 16:13:59;;;;;;;;;;;;;;;9.22;66.31;97649.34;4224364;28;5696;-62
2024/01/22 16:16:04;;;;;;;;;;;;;;;9.23;66.34;97648.34;4228025;27;5692;-62
2024/01/22 16:18:08;;;;;;;;;;;;;;;9.23;66.12;97647.53;4232148;28;5841;-61
2024/01/22 16:20:12;;;;;;;;;;;;;;;9.22;66.50;97651.16;4223354;28;5650;-62
2024/01/22 16:22:17;;;;;;;;;;;;;;;9.24;66.68;97646.53;4226985;27;5693;-62
2024/01/22 16:24:21;;;;;;;;;;;;;;;9.24;66.57;97647.38;4229950;27;5696;-62
2024/01/22 16:26:25;;;;;;;;;;;;;;;9.25;66.80;97661.38;4228867;27;5705;-62
2024/01/22 16:28:30;;;;;;;;;;;;;;;9.25;66.71;97664.84;4228771;28;5821;-62
2024/01/22 16:30:39;;;;;;;;;;;;;;;9.27;66.94;97657.59;4229501;28;5594;-62
2024/01/22 16:32:46;;;;;;;;;;;;;;;9.30;67.58;97673.09;4225183;28;5727;-62
2024/01/22 16:34:50;;;;;;;;;;;;;;;9.32;68.08;97681.69;4227932;27;5792;-62
2024/01/22 16:36:53;;;;;;;;;;;;;;;9.31;68.44;97673.94;4228346;28;5677;-62
2024/01/22 16:38:54;;;;;;;;;;;;;;;9.31;68.08;97684.50;4227938;28;5602;-62
2024/01/22 16:40:58;;;;;;;;;;;;;;;9.30;68.13;97699.50;4223973;28;5727;-62
2024/01/22 16:43:02;;;;;;;;;;;;;;;9.29;68.05;97692.56;4228080;28;5617;-62
2024/01/22 16:45:05;;;;;;;;;;;;;;;9.29;68.26;97695.22;4229707;28;5625;-61
2024/01/22 16:47:08;;;;;;;;;;;;;;;9.30;68.05;97698.66;4232419;28;5640;-62
2024/01/22 16:49:13;;;;;;;;;;;;;;;9.33;68.55;97695.69;4228820;28;5613;-66
2024/01/22 16:51:19;;;;;;;;;;;;;;;9.31;68.49;97705.59;4226248;27;5704;-62
2024/01/22 16:53:22;;;;;;;;;;;;;;;9.32;68.75;97713.34;4227068;27;5763;-67
2024/01/22 16:55:25;;;;;;;;;;;;;;;9.33;68.60;97720.28;4234482;27;5793;-63
2024/01/22 16:57:28;;;;;;;;;;;;;;;9.33;68.95;97730.81;4230522;28;5114;-63
2024/01/22 16:59:31;;;;;;;;;;;;;;;9.30;68.80;97719.78;4229935;28;5594;-63
2024/01/22 17:01:35;;;;;;;;;;;;;;;9.29;69.14;97718.97;4228738;27;5694;-66
2024/01/22 17:03:38;;;;;;;;;;;;;;;9.29;68.92;97718.97;4225131;27;5622;-66
2024/01/22 17:05:44;;;;;;;;;;;;;;;9.29;69.32;97724.22;4230938;27;5684;-64
2024/01/22 17:07:48;;;;;;;;;;;;;;;9.30;68.85;97731.16;4227412;27;5764;-62
2024/01/22 17:09:51;;;;;;;;;;;;;;;9.30;69.01;97730.34;4225792;28;5703;-64
2024/01/22 17:11:54;;;;;;;;;;;;;;;9.29;68.95;97729.50;4229944;28;5817;-64
2024/01/22 17:13:57;;;;;;;;;;;;;;;9.29;69.40;97745.34;4234716;27;5796;-66
2024/01/22 17:16:04;;;;;;;;;;;;;;;9.30;69.13;97760.19;4223222;28;5884;-70
2024/01/22 17:18:08;;;;;;;;;;;;;;;9.32;69.22;97768.75;4227291;27;5606;-69
2024/01/22 17:20:12;;;;;;;;;;;;;;;9.32;69.11;97781.97;4227579;28;5653;-70
2024/01/22 17:22:17;;;;;;;;;;;;;;;9.34;69.34;97782.63;4219675;27;5692;-70
2024/01/22 17:24:21;;;;;;;;;;;;;;;9.36;69.28;97797.47;4224529;27;5682;-71
2024/01/22 17:26:24;;;;;;;;;;;;;;;9.36;69.22;97802.72;4225509;27;5763;-68
2024/01/22 17:28:27;;;;;;;;;;;;;;;9.37;69.12;97804.38;4230152;27;6335;-66
2024/01/22 17:30:29;;;;;;;;;;;;;;;9.36;69.46;97813.28;4224250;28;5814;-66
2024/01/22 17:32:32;;;;;;;;;;;;;;;9.36;69.57;97815.94;4219523;27;5688;-67
2024/01/22 17:34:37;;;;;;;;;;;;;;;9.38;69.24;97819.22;4237796;27;5692;-62
2024/01/22 17:36:40;;;;;;;;;;;;;;;9.40;69.64;97815.47;4229515;27;5091;-70
2024/01/22 17:38:45;;;;;;;;;;;;;;;9.41;69.74;97817.13;4223758;27;5602;-73